Weather observations for the past three days for
Mojave
Imperial (Metric)
Date Time (pdt) Wind (mph) Vis. (mi.) Weather Sky Cond. Temperature (ºF) Relative Humidity Wind Chill (°F) Heat Index (°F) Pressure Precipitation (in)
Air Dwpt 6 hour altimeter (in) sea level (mb) 1 hr 3 hr 6 hr
Max. Min.
03 22:35 SW 20 G 24 10.00 Fair CLR 55.9 40.3 56% 29.89 0.0
03 22:15 SW 18 G 28 10.00 Fair CLR 56.8 40.5 54% 29.89 0.0
03 21:55 SW 17 G 24 10.00 Fair CLR 55.9 42.3 60% 29.86 0.0
03 21:35 SW 15 10.00 Fair CLR 55.8 42.6 62% 29.87 0.0
03 21:15 SW 18 G 24 10.00 Fair CLR 56.1 42.8 61% 29.85 0.0
03 20:55 SW 16 G 23 10.00 Fair CLR 56.1 42.4 60% 29.85 0.0
03 20:35 SW 18 G 23 10.00 Fair CLR 56.1 42.3 60% 29.85 0.0
03 20:15 SW 16 10.00 Fair CLR 56.7 41.9 58% 29.84 0.0
03 19:55 SW 21 G 26 9.00 Fair and Breezy CLR 57.2 41.5 56% 29.83 0.0
03 19:35 SW 21 G 30 9.00 Fair and Breezy CLR 57.7 42.1 56% 29.83 0.0
03 19:15 SW 21 G 26 9.00 Fair and Breezy CLR 59.7 41.7 52% 29.82 0.0
03 18:55 SW 21 G 28 9.00 Fair and Breezy CLR 61.7 41.9 48% 29.81 0.0
03 18:35 SW 20 G 29 9.00 Fair CLR 62.2 41.2 46% 29.81 0.0
03 18:15 SW 18 G 25 10.00 Fair CLR 64.8 41.2 42% 29.81 0.0
03 17:55 SW 21 G 26 10.00 Fair and Breezy CLR 66.9 40.5 38% 29.81 0.0
03 17:35 SW 23 G 28 10.00 Fair and Breezy CLR 67.8 40.5 37% 29.81 0.0
03 17:15 SW 24 G 31 10.00 Fair and Breezy CLR 69.6 40.8 35% 29.81 0.0
03 16:55 SW 23 G 29 10.00 Fair and Breezy CLR 69.1 41.5 75.6 69.1 37% 29.81 0.0
03 16:35 SW 22 G 29 10.00 Fair and Breezy CLR 70.7 41.5 35% 29.81 0.0
03 16:15 S 21 G 26 10.00 Fair and Breezy CLR 70.5 41.4 35% 29.82 0.0
03 15:55 SW 22 G 28 10.00 Fair and Breezy CLR 72.7 39.2 30% 29.82 0.0
03 15:35 SW 17 G 26 10.00 Fair CLR 72.7 38.5 29% 29.83 0.0
03 15:15 SW 18 G 28 10.00 Fair CLR 73.2 35.6 25% 29.84 0.0
03 14:55 SW 23 G 30 10.00 Fair and Breezy CLR 73.9 34.3 24% 29.84 0.0
03 14:35 SW 22 G 28 10.00 Fair and Breezy CLR 74.7 34.9 23% 29.84 0.0
03 14:15 SW 17 G 28 10.00 Fair CLR 74.5 33.6 22% 29.85 0.0
03 13:55 SW 20 G 26 10.00 Fair CLR 75.2 34 22% 76 29.86 0.0
03 13:35 SW 18 G 24 10.00 Fair CLR 75.4 34.5 23% 76 29.86 0.0
03 12:55 SW 20 G 25 10.00 A Few Clouds FEW350 74.3 37.2 26% 29.87 0.0
03 12:35 SW 20 G 24 10.00 Fair CLR 74.3 36.5 25% 29.88 0.0
03 11:55 SW 17 G 25 10.00 Fair CLR 72.5 39 30% 29.89 0.0
03 11:35 SW 20 G 28 10.00 Fair CLR 72.1 37.4 28% 29.89 0.0
03 11:15 SW 17 10.00 Fair CLR 72.5 35.6 26% 29.89 0.0
03 10:55 SW 20 10.00 Fair CLR 71.8 32.4 72.1 47.5 23% 29.9 0.0
03 10:35 SW 20 G 24 10.00 Fair CLR 71.1 33.4 25% 29.9 0.0
03 10:15 SW 18 G 24 10.00 A Few Clouds FEW340 70.3 31.8 24% 29.89 0.0
03 09:55 SW 14 10.00 Fair CLR 70.2 32.7 25% 29.89 0.0
03 09:35 SW 13 9.00 Fair CLR 70 33.3 26% 29.89 0.0
03 09:15 SW 10 G 18 10.00 Fair CLR 68.9 30.6 24% 29.89 0.0
03 08:55 SW 10 10.00 Fair CLR 68.4 29.8 24% 29.89 0.0
03 08:35 SW 13 10.00 Fair CLR 68 29.8 24% 29.89 0.0
03 08:15 SW 9 10.00 Fair CLR 67.3 32 27% 29.89 0.0
03 07:55 Calm 10.00 Fair CLR 65.8 30.7 27% 29.88 0.0
03 07:35 Calm 10.00 Fair CLR 63.7 30.2 28% 29.88 0.0
03 07:15 Calm 10.00 Fair CLR 58.8 31.1 35% 29.88 0.0
03 06:55 Calm 10.00 Fair CLR 55.2 29.1 37% 29.87 0.0
03 06:35 NW 5 9.00 Fair CLR 51.3 28.9 42% 29.87 0.0
03 06:15 W 3 9.00 Fair CLR 48.9 28.8 46% 29.87 0.0
03 05:55 NW 5 9.00 Fair CLR 48.4 27.7 45% 47 29.87 0.0
03 05:35 NW 5 10.00 Fair CLR 48.7 27.7 44% 47 29.87 0.0
03 05:15 NW 7 10.00 Fair CLR 50.4 27.1 41% 29.87 0.0
03 04:55 NW 7 10.00 Fair CLR 50.5 27.1 64.9 50.4 40% 29.88 0.0
03 04:35 N 7 10.00 Fair CLR 51.4 27.3 39% 29.88 0.0
03 04:15 N 6 10.00 Fair CLR 54.1 27.3 36% 29.88 0.0
03 03:55 NE 5 10.00 Fair CLR 55.6 27.7 34% 29.88 0.0
03 03:35 E 3 10.00 Fair CLR 56.5 27.7 33% 29.88 0.0
03 03:15 W 6 10.00 Fair CLR 57.7 27 31% 29.88 0.0
03 02:55 W 3 10.00 Fair CLR 57.2 27.5 32% 29.88 0.0
03 02:35 Calm 10.00 Fair CLR 58.5 26.8 30% 29.88 0.0
03 02:15 W 5 10.00 A Few Clouds FEW110 58.5 26.6 30% 29.88 0.0
03 01:55 W 6 10.00 A Few Clouds FEW110 63.1 25.9 24% 29.89 0.0
03 01:35 SW 5 10.00 Fair CLR 61 26.6 27% 29.89 0.0
03 01:15 W 9 10.00 Fair CLR 60.4 26.6 28% 29.9 0.0
03 00:55 W 5 10.00 Fair CLR 60.1 27 28% 29.9 0.0
03 00:35 W 6 10.00 Fair CLR 60.3 26.1 27% 29.9 0.0
03 00:15 W 10 10.00 Fair CLR 60.6 26.6 27% 29.9 0.0
02 23:55 W 9 10.00 Fair CLR 62.1 26.6 26% 29.9 0.0
02 23:35 W 9 10.00 Fair CLR 61 27 27% 29.9 0.0
02 23:15 SW 6 10.00 Fair CLR 63.3 26.6 25% 29.9 0.0
02 22:55 S 5 10.00 Fair CLR 65.8 25.9 83.7 65.5 22% 29.9 0.0
02 22:35 SW 5 10.00 Fair CLR 65.7 26.4 23% 29.9 0.0
02 22:15 SW 3 10.00 Fair CLR 66.7 25.9 21% 29.9 0.0
02 21:55 S 3 10.00 Fair CLR 68 25.7 20% 29.9 0.0
02 21:35 Calm 10.00 Fair CLR 68.2 25.5 20% 29.9 0.0
02 21:15 W 5 10.00 Fair CLR 67.1 27 22% 29.89 0.0
02 20:55 W 7 10.00 Fair CLR 68.9 26.2 20% 29.88 0.0
02 20:35 SW 8 10.00 Fair CLR 70.3 26.2 19% 29.88 0.0
02 20:15 W 6 10.00 Fair CLR 70.2 27.7 20% 29.87 0.0
02 19:55 SW 10 10.00 Fair CLR 73.9 26.6 17% 29.86 0.0
02 19:35 SW 12 9.00 Fair CLR 75.2 28.4 18% 76 29.86 0.0
02 19:15 SW 12 9.00 Fair CLR 77 31.3 19% 77 29.86 0.0
02 18:55 SW 14 9.00 Fair CLR 78.6 31.5 18% 78 29.86 0.0
02 18:35 SW 13 9.00 Fair CLR 79.9 31.8 17% 78 29.86 0.0
02 18:15 SW 18 G 24 10.00 Fair CLR 80.6 31.5 17% 79 29.86 0.0
02 17:55 SW 15 G 22 10.00 Fair CLR 82 32.4 17% 80 29.87 0.0
02 17:35 SW 16 G 22 10.00 Fair CLR 82.6 33.4 17% 80 29.87 0.0
02 17:15 SW 17 G 23 10.00 Fair CLR 82.8 32 16% 80 29.87 0.0
02 16:55 S 18 10.00 Fair CLR 83.7 33.1 86.9 78.1 16% 81 29.86 0.0
02 16:35 S 20 10.00 Fair CLR 84.9 32.7 15% 82 29.86 0.0
02 15:55 Vrbl 3 10.00 A Few Clouds FEW290 83.8 29.8 14% 81 29.87 0.0
02 15:35 SE 14 G 22 10.00 Mostly Cloudy BKN290 85.1 29.5 13% 82 29.88 0.0
02 15:15 S 16 G 22 10.00 Mostly Cloudy BKN290 85.5 29.1 13% 82 29.89 0.0
02 14:55 S 14 G 21 10.00 Fair CLR 86 28.4 12% 83 29.91 0.0
02 14:35 Vrbl 7 10.00 A Few Clouds FEW310 85.6 29.1 13% 82 29.91 0.0
02 14:15 S 12 G 22 10.00 Partly Cloudy SCT310 85.5 28.2 12% 82 29.92 0.0
02 13:55 SE 8 10.00 Mostly Cloudy FEW240 SCT290 BKN310 BKN380 84.4 26.6 12% 81 29.93 0.0
02 13:35 Calm 10.00 Mostly Cloudy FEW260 SCT280 BKN310 83.3 27.3 13% 81 29.93 0.0
02 13:15 Vrbl 6 10.00 Mostly Cloudy BKN280 84 27.9 13% 81 29.94 0.0
02 12:55 SW 8 10.00 Mostly Cloudy FEW250 SCT280 BKN310 82.4 26.6 13% 80 29.96 0.0
02 12:15 Calm 10.00 Mostly Cloudy BKN280 BKN310 79.7 27 14% 78 29.97 0.0
02 11:55 SE 12 G 17 10.00 A Few Clouds FEW270 80.6 28.8 15% 79 29.99 0.0
02 11:35 E 8 10.00 Fair CLR 80.1 28.2 15% 78 29.99 0.0
02 11:15 SE 10 9.00 Fair CLR 79.3 28.6 16% 78 29.99 0.0
02 10:55 E 9 10.00 Partly Cloudy FEW270 SCT340 77.9 29.3 78.6 54.1 17% 77 30 0.0
02 10:35 E 9 10.00 Partly Cloudy SCT270 77.2 32.2 19% 77 30 0.0
02 10:15 Vrbl 7 10.00 Fair CLR 77 33.3 20% 77 30 0.0
02 09:55 Vrbl 6 10.00 Fair CLR 75.4 34.7 23% 76 30 0.0
02 09:35 E 3 10.00 Fair CLR 74.7 34.2 23% 30 0.0
02 09:15 NE 7 10.00 Fair CLR 73.2 36.3 26% 30 0.0
02 08:55 N 5 10.00 Fair CLR 70.3 33.8 26% 30 0.0
02 08:35 N 3 10.00 Fair CLR 69.3 33.4 27% 30.01 0.0
02 08:15 NE 5 10.00 Fair CLR 68 34.3 29% 30.01 0.0
02 07:55 Calm 10.00 Fair CLR 65.8 34.7 32% 30 0.0
02 07:35 E 3 10.00 Fair CLR 65.1 36.1 34% 30 0.0
02 07:15 N 5 10.00 Fair CLR 61.9 39.9 45% 30 0.0
02 06:55 N 6 10.00 Fair CLR 57.9 39.7 51% 29.99 0.0
02 06:35 N 8 9.00 Fair CLR 55.4 39 54% 29.98 0.0
02 06:15 N 6 10.00 Fair CLR 54.3 38.8 56% 29.98 0.0
02 05:55 NE 3 10.00 Fair CLR 55.6 39.2 54% 29.98 0.0
02 05:35 N 8 10.00 Fair CLR 55.2 39.9 57% 29.97 0.0
02 05:15 Calm 10.00 Fair CLR 54.9 39.9 57% 29.96 0.0
02 04:55 SE 5 10.00 Fair CLR 57.7 39.4 67.3 55.2 51% 29.96 0.0
02 04:35 Vrbl 7 10.00 Fair CLR 58.3 39.4 50% 29.95 0.0
02 04:15 N 7 10.00 Fair CLR 57 39.6 52% 29.95 0.0
02 03:55 NW 8 10.00 Fair CLR 57.2 39.6 52% 29.95 0.0
02 03:35 NW 6 10.00 Fair CLR 55.8 39.6 55% 29.95 0.0
02 03:15 Calm 10.00 Fair CLR 55.9 40.3 56% 29.95 0.0
02 02:55 Calm 10.00 Fair CLR 59.2 40.6 50% 29.95 0.0
02 02:35 Calm 10.00 Fair CLR 60.3 40.8 49% 29.95 0.0
02 02:15 SW 5 10.00 Fair CLR 61.2 41 48% 29.95 0.0
02 01:55 Vrbl 7 10.00 Fair CLR 62.2 40.3 45% 29.95 0.0
02 01:35 NW 7 10.00 A Few Clouds FEW310 63 40.5 44% 29.95 0.0
02 01:15 NW 8 10.00 A Few Clouds FEW300 62.1 40.8 46% 29.96 0.0
02 00:55 NW 8 10.00 Fair CLR 61.5 40.3 46% 29.96 0.0
02 00:35 NW 7 10.00 A Few Clouds FEW120 63.1 40.3 43% 29.97 0.0
02 00:15 NW 6 10.00 Partly Cloudy SCT120 62.6 41 45% 29.96 0.0
01 23:55 NW 6 10.00 Partly Cloudy FEW120 SCT310 63.5 42.8 47% 29.96 0.0
01 23:35 W 8 10.00 Partly Cloudy SCT310 64.9 42.8 45% 29.96 0.0
01 23:15 SW 6 10.00 A Few Clouds FEW310 66.4 43.2 43% 29.95 0.0
01 22:55 SW 8 10.00 A Few Clouds FEW320 67.3 43.2 82.6 67.3 42% 29.95 0.0
01 22:35 W 9 10.00 A Few Clouds FEW330 67.8 42.1 39% 29.95 0.0
01 22:15 SW 7 10.00 Partly Cloudy SCT330 68.4 42.6 39% 29.95 0.0
01 21:55 W 9 10.00 Fair CLR 69.8 42.6 38% 29.95 0.0
01 21:35 W 9 10.00 Fair CLR 70.2 43 38% 29.94 0.0
01 21:15 W 8 10.00 Fair CLR 71.6 41 33% 29.94 0.0
01 20:55 NW 12 10.00 A Few Clouds FEW310 72.9 43 34% 29.93 0.0
01 20:35 NW 12 10.00 A Few Clouds FEW310 73.2 44.2 36% 29.92 0.0
01 20:15 NW 14 10.00 A Few Clouds FEW310 73.9 45.3 36% 29.91 0.0
01 19:55 NW 13 9.00 A Few Clouds FEW120 75 44.8 34% 77 29.91 0.0
01 19:35 W 13 10.00 Partly Cloudy SCT120 SCT320 76.1 45 33% 78 29.9 0.0
01 19:15 W 12 9.00 Mostly Cloudy BKN120 77.7 44.8 31% 78 29.9 0.0
01 18:55 W 12 9.00 Overcast OVC120 79.5 43.7 28% 79 29.89 0.0
01 18:35 SW 10 9.00 Overcast OVC120 80.8 33.8 18% 79 29.89 0.0
01 18:15 S 8 9.00 Overcast OVC120 82.2 26.4 13% 80 29.89 0.0
01 17:55 Vrbl 6 10.00 Overcast OVC110 82.2 26.4 13% 80 29.89 0.0
01 17:35 Calm 9.00 Overcast OVC110 82.2 27.3 13% 80 29.89 0.0
01 17:15 Vrbl 6 9.00 Overcast OVC110 82.2 27.9 14% 80 29.89 0.0
01 16:55 Vrbl 5 9.00 Overcast OVC120 82.8 27.7 85.5 79.2 13% 80 29.89 0.0
01 16:35 Calm 10.00 Mostly Cloudy BKN120 84.7 27.7 12% 82 29.89 0.0
01 16:15 Calm 10.00 Partly Cloudy SCT120 83.8 27.9 13% 81 29.9 0.0
01 15:55 Vrbl 3 10.00 Fair CLR 83.7 27.5 13% 81 29.9 0.0
01 15:35 E 6 10.00 Fair CLR 85.1 28.4 13% 82 29.91 0.0
01 15:15 S 8 10.00 A Few Clouds FEW340 85.1 28.8 13% 82 29.92 0.0
01 14:55 Calm 10.00 Partly Cloudy SCT340 84 28.6 13% 81 29.93 0.0
01 14:35 Calm 10.00 Fair CLR 83.1 27.1 13% 80 29.94 0.0
01 14:15 NE 7 10.00 Fair CLR 82.2 27.7 14% 80 29.94 0.0
01 13:55 Vrbl 5 10.00 Fair CLR 83.1 28.2 13% 80 29.95 0.0
01 13:35 Vrbl 5 10.00 Fair CLR 82.2 28.4 14% 80 29.95 0.0
01 13:15 SW 6 10.00 A Few Clouds FEW370 82.4 28.4 14% 80 29.95 0.0
01 12:55 Calm 10.00 Fair CLR 81.5 27 13% 79 29.96 0.0
01 12:35 Calm 10.00 Fair CLR 80.2 25 13% 78 29.97 0.0
01 12:15 S 10 10.00 Fair CLR 81.3 27.5 14% 79 29.98 0.0
01 11:55 E 7 10.00 Fair CLR 81 27.7 14% 79 29.99 0.0
01 11:35 E 12 10.00 Fair CLR 80.4 27.5 14% 79 29.99 0.0
01 10:55 E 12 10.00 Fair CLR 79.5 29.5 79.5 59.4 16% 78 30 0.0
01 10:35 E 9 10.00 Fair CLR 78.3 29.8 17% 77 30 0.0
01 10:15 E 12 10.00 Fair CLR 77.7 31.1 18% 77 30 0.0
01 09:55 E 8 10.00 Fair CLR 76.6 34.5 22% 77 30 0.0
01 09:35 Calm 10.00 Fair CLR 75.6 37.2 25% 77 30 0.0
01 09:15 E 3 10.00 Fair CLR 75 38.7 27% 77 30 0.0
01 08:55 Calm 10.00 Fair CLR 73.6 40.1 30% 29.99 0.0
01 08:35 Calm 9.00 Fair CLR 72.9 42.8 34% 29.98 0.0
01 08:15 Calm 9.00 Fair CLR 70 43.3 38% 29.98 0.0
01 07:55 Calm 10.00 Fair CLR 67.6 44.4 43% 29.97 0.0
01 07:35 S 3 10.00 Fair CLR 66.2 44.4 46% 29.97 0.0
01 07:15 Calm 9.00 Fair CLR 64.6 43.7 47% 29.97 0.0
01 06:55 Calm 6.00 Fair with Haze CLR 61.5 40.5 46% 29.97 0.0
01 06:35 Calm 9.00 Fair CLR 61.7 39.2 44% 29.96 0.0
01 06:15 Calm 8.00 Fair CLR 60.6 39 45% 29.95 0.0
01 05:55 N 14 10.00 Fair CLR 63.1 42.8 48% 29.94 0.0
01 05:35 NW 9 10.00 Fair CLR 63.1 42.6 47% 29.93 0.0
01 05:15 NW 10 10.00 Fair CLR 63.5 42.6 47% 29.93 0.0
01 04:55 NW 13 10.00 Fair CLR 64.4 43.2 67.8 64.2 46% 29.93 0.0
01 04:35 NW 15 10.00 Fair CLR 64.6 43.3 46% 29.92 0.0
01 04:15 NW 18 10.00 Fair CLR 64.4 43.2 46% 29.92 0.0
01 03:55 NW 18 10.00 Fair CLR 64.9 43 45% 29.92 0.0
01 03:35 NW 17 G 24 10.00 Fair CLR 65.1 42.8 44% 29.92 0.0
01 03:15 NW 20 G 24 10.00 Fair CLR 65.1 43.2 45% 29.91 0.0
01 02:55 NW 20 G 28 10.00 Fair CLR 65.3 43.3 45% 29.91 0.0
01 02:35 NW 20 G 26 10.00 Fair CLR 65.5 43.2 44% 29.91 0.0
01 02:15 NW 23 G 31 10.00 Fair and Breezy CLR 65.8 43.5 45% 29.91 0.0
01 01:55 NW 24 G 31 10.00 Fair and Breezy CLR 66.2 44.2 45% 29.91 0.0
01 01:35 NW 24 G 32 10.00 Fair and Breezy CLR 66 43.9 45% 29.92 0.0
01 01:15 NW 26 G 32 10.00 Fair and Windy CLR 66.2 43.2 43% 29.92 0.0
01 00:55 NW 22 G 31 10.00 Fair and Breezy CLR 66.6 41.5 40% 29.92 0.0
01 00:35 NW 22 G 30 10.00 Fair and Breezy CLR 66.6 40.5 39% 29.92 0.0
01 00:15 NW 24 10.00 Fair and Breezy CLR 67.5 37.2 33% 29.92 0.0
30 23:55 NW 18 G 29 10.00 Fair CLR 67.1 37.8 34% 29.91 0.0
30 23:35 NW 18 10.00 Fair CLR 66.9 38.7 36% 29.91 0.0
30 23:15 NW 20 G 25 10.00 Fair CLR 67.8 37 32% 29.91 0.0
30 22:55 NW 17 G 28 10.00 Fair CLR 67.3 38.1 79 67.1 34% 29.9 0.0
Date Time (pdt) Wind (mph) Vis. (mi.) Weather Sky Cond. Air Dwpt Max. Min. Relative Humidity Wind Chill (°F) Heat Index (°F) altimeter (in) sea level (mb) 1 hr 3 hr 6 hr
6 hour
Temperature (ºF) Pressure Precipitation (in)